Startpagina
METAR-TAF:

METAR-TAF

Vliegvelden :

Aéroport Les Eplatures

La Chaux-de-Fonds, Zwitserland

breedte: 47-05-03N, lengte: 006-47-37E, hoogte: 1027 m

Actueel weer

Dit bericht is 21 minuten geleden gemaakt, om 10:50 UTC
Wind 7 kt uit het zuidoosten, variërend tussen het noordoosten en het zuiden
Temperatuur 15°C
Vochtigheid 48%
Druk 1018 hPa
Zicht 10 km of meer
Weinig wolken op 4500 ft

METAR: LSGC 311050Z 13007KT 050V180 9999 FEW045 15/04 Q1018

Tijdstip: 13:11 (11:11 UTC)

Verwachting

Dit bericht is 2 uur en het 46 minuten geleden gemaakt, om 08:25 UTC
Verwachting geldig van 31 om 09 UTC tot 31 om 18 UTC
Wind 8 kt uit het oostnoordoosten
Zicht 10 km of meer
geen wolken onder 1500 m en geen cumulonimbus

TAF: LSGC 310825Z 3109/3118 06008KT CAVOK

Waarnemingen en weersverwachtingen van meer dan 4000 vliegvelden (METAR en TAF).

De beschikbare stations zijn de gele en rode punten op de kaart.

Ga met uw muis naar het station om de naam te zien.

Klik dan om waarnemingen en weersverwachtingen te zien.

kaart wijzigen: klik op de groene knoppen met een zwart kruis om in te zoomen, op de groene knop met een streepje om uit te zoomen of op de groene pijlen voor aangrenzende kaarten.


METAR-TAF: